Time;durP1;ratioP1;P1;durP2;ratioP2;P2;SDS_P1;SDS_P2;PMS_P1;PMS_P2;Temp;Humidity;BMP_temperature;BMP_pressure;BME280_temperature;BME280_humidity;BME280_pressure;Samples;Min_cycle;Max_cycle;Signal;HPM_P1;HPM_P2
2021/01/04 00:01:00;;;;;;;10.10;3.78;;;15.90;61.30;;;;;;5088672;28;20068;-46
2021/01/04 00:03:40;;;;;;;8.45;4.00;;;15.90;61.40;;;;;;5095439;28;20099;-46
2021/01/04 00:06:18;;;;;;;8.15;3.63;;;15.90;61.40;;;;;;5095007;28;20354;-46
2021/01/04 00:09:03;;;;;;;8.05;3.53;;;15.90;61.40;;;;;;5095157;28;20173;-46
2021/01/04 00:11:58;;;;;;;7.68;3.15;;;15.90;61.40;;;;;;5095283;28;20051;-46
2021/01/04 00:14:33;;;;;;;7.00;3.50;;;15.90;61.40;;;;;;5095636;28;20059;-46
2021/01/04 00:17:08;;;;;;;9.05;3.92;;;15.80;61.30;;;;;;5095964;28;20050;-46
2021/01/04 00:19:58;;;;;;;7.53;3.40;;;15.80;61.30;;;;;;5095819;28;20028;-46
2021/01/04 00:22:50;;;;;;;6.95;3.90;;;15.80;61.30;;;;;;5095007;28;20424;-46
2021/01/04 00:25:31;;;;;;;;;;;15.80;61.30;;;;;;5084222;28;20043;-46
2021/01/04 00:28:05;;;;;;;6.18;3.22;;;15.80;61.30;;;;;;5094877;28;19911;-46
2021/01/04 00:30:55;;;;;;;8.10;3.40;;;15.80;61.30;;;;;;5094788;28;20028;-46
2021/01/04 00:33:31;;;;;;;8.45;3.40;;;15.80;61.30;;;;;;5094778;28;20354;-46
2021/01/04 00:36:01;;;;;;;6.00;3.22;;;15.80;61.30;;;;;;5094827;28;20369;-46
2021/01/04 00:38:56;;;;;;;7.00;3.53;;;15.80;61.30;;;;;;5094930;28;20055;-46
2021/01/04 00:41:37;;;;;;;7.07;3.60;;;15.80;61.30;;;;;;5055987;28;20044;-46
2021/01/04 00:44:11;;;;;;;6.75;3.08;;;15.80;61.30;;;;;;5095249;28;20533;-46
2021/01/04 00:46:44;;;;;;;6.82;3.13;;;15.80;61.40;;;;;;5094344;28;20099;-46
2021/01/04 00:49:32;;;;;;;7.95;3.25;;;15.80;61.30;;;;;;5094893;28;20048;-46
2021/01/04 00:52:13;;;;;;;5.57;3.45;;;15.80;61.30;;;;;;5094371;28;20363;-46
2021/01/04 00:54:52;;;;;;;8.20;3.08;;;15.80;61.30;;;;;;5094528;28;20107;-46
2021/01/04 00:57:43;;;;;;;7.72;3.50;;;15.70;61.30;;;;;;5094298;28;20079;-46
2021/01/04 01:00:19;;;;;;;6.53;3.38;;;15.80;61.30;;;;;;5094968;28;20038;-46
2021/01/04 01:02:58;;;;;;;5.90;2.97;;;15.70;61.30;;;;;;5094646;28;20016;-46
2021/01/04 01:05:35;;;;;;;7.13;3.30;;;15.70;61.30;;;;;;5094172;28;20024;-46
2021/01/04 01:08:26;;;;;;;5.40;2.88;;;15.70;61.30;;;;;;5094886;28;20036;-46
2021/01/04 01:11:16;;;;;;;7.10;3.15;;;15.70;61.30;;;;;;5094422;28;20044;-46
2021/01/04 01:13:48;;;;;;;7.45;3.22;;;15.70;61.50;;;;;;5094457;28;20103;-46
2021/01/04 01:16:15;;;;;;;;;;;15.70;61.30;;;;;;5095202;28;20020;-46
2021/01/04 01:19:03;;;;;;;6.03;3.30;;;15.70;61.30;;;;;;5094041;28;19908;-46
2021/01/04 01:21:30;;;;;;;6.68;3.28;;;15.70;61.30;;;;;;5094368;28;20047;-46
2021/01/04 01:23:58;;;;;;;6.75;3.03;;;15.70;61.30;;;;;;5094007;28;20027;-46
2021/01/04 01:27:07;;;;;;;8.65;3.72;;;15.70;61.30;;;;;;5093752;28;20070;-46
2021/01/04 01:29:45;;;;;;;7.30;3.33;;;15.70;61.30;;;;;;5093755;28;20150;-46
2021/01/04 01:32:39;;;;;;;5.75;3.10;;;15.60;61.30;;;;;;5093616;28;20020;-46
2021/01/04 01:35:31;;;;;;;5.38;2.85;;;15.60;61.30;;;;;;5094225;28;20027;-46
2021/01/04 01:38:19;;;;;;;5.90;3.25;;;15.60;61.30;;;;;;5049082;28;20577;-46
2021/01/04 01:41:13;;;;;;;7.95;3.67;;;15.60;61.30;;;;;;5093590;28;20538;-46
2021/01/04 01:44:07;;;;;;;5.80;3.47;;;15.70;61.40;;;;;;5094243;28;20032;-46
2021/01/04 01:46:39;;;;;;;4.75;3.05;;;15.60;61.30;;;;;;5093831;28;20455;-46
2021/01/04 01:49:13;;;;;;;6.93;3.55;;;15.60;61.40;;;;;;5093902;28;20380;-46
2021/01/04 01:52:03;;;;;;;7.13;3.58;;;15.60;61.40;;;;;;5093663;28;20047;-46
2021/01/04 01:54:59;;;;;;;8.68;3.70;;;15.60;61.40;;;;;;5093876;28;20082;-46
2021/01/04 01:58:10;;;;;;;6.57;3.40;;;15.60;61.40;;;;;;5093692;28;20158;-46
2021/01/04 02:00:42;;;;;;;6.50;3.65;;;15.60;61.40;;;;;;5041042;28;20047;-46
2021/01/04 02:03:23;;;;;;;7.88;3.30;;;15.60;61.40;;;;;;5098237;28;20039;-46
2021/01/04 02:06:43;;;;;;;8.45;3.40;;;15.60;61.40;;;;;;5097857;28;20056;-46
2021/01/04 02:09:28;;;;;;;8.98;3.15;;;15.60;61.40;;;;;;4995659;28;20054;-46
2021/01/04 02:12:10;;;;;;;6.93;3.40;;;15.60;61.40;;;;;;5089722;28;20523;-46
2021/01/04 02:15:00;;;;;;;6.72;3.55;;;15.50;61.40;;;;;;5097753;28;20070;-46
2021/01/04 02:17:42;;;;;;;5.70;3.45;;;15.50;61.30;;;;;;5098129;28;20043;-46
2021/01/04 02:20:53;;;;;;;7.70;4.00;;;15.50;61.40;;;;;;5098013;28;20032;-46
2021/01/04 02:23:28;;;;;;;9.25;3.55;;;15.60;61.40;;;;;;5097675;28;20059;-46
2021/01/04 02:25:58;;;;;;;16.13;4.10;;;15.50;61.50;;;;;;5097222;28;20028;-46
2021/01/04 02:28:31;;;;;;;12.00;6.25;;;15.50;61.60;;;;;;5097301;28;20024;-46
2021/01/04 02:30:58;;;;;;;22.10;14.77;;;15.50;61.70;;;;;;5096693;28;20036;-46
2021/01/04 02:33:24;;;;;;;12.50;7.72;;;15.50;61.70;;;;;;5096813;28;20024;-46
2021/01/04 02:35:51;;;;;;;18.15;7.32;;;15.50;61.70;;;;;;5097075;28;20026;-46
2021/01/04 02:38:28;;;;;;;13.85;6.88;;;15.50;61.80;;;;;;5096899;28;20042;-46
2021/01/04 02:40:54;;;;;;;20.20;6.82;;;15.60;61.80;;;;;;5097082;28;20024;-46
2021/01/04 02:43:21;;;;;;;19.02;7.10;;;15.60;61.80;;;;;;5096975;28;20093;-46
2021/01/04 02:45:48;;;;;;;63.50;52.85;;;15.60;61.80;;;;;;5096290;28;20199;-46
2021/01/04 02:48:33;;;;;;;33.65;13.32;;;15.60;62.00;;;;;;5095134;28;20052;-47
2021/01/04 02:51:27;;;;;;;23.40;11.63;;;15.60;62.10;;;;;;5093587;28;20449;-46
2021/01/04 02:54:27;;;;;;;19.85;11.32;;;15.70;62.40;;;;;;5099406;28;20016;-46
2021/01/04 02:57:00;;;;;;;20.08;11.57;;;15.80;63.00;;;;;;5090369;28;20039;-46
2021/01/04 02:59:58;;;;;;;23.60;10.88;;;15.80;62.50;;;;;;5097164;28;20119;-46
2021/01/04 03:02:38;;;;;;;16.27;10.32;;;15.90;62.50;;;;;;5096385;28;20470;-46
2021/01/04 03:05:08;;;;;;;20.35;10.45;;;16.10;62.60;;;;;;5079078;28;20059;-46
2021/01/04 03:07:35;;;;;;;19.92;10.15;;;16.20;62.50;;;;;;5096059;28;20027;-46
2021/01/04 03:10:18;;;;;;;22.13;9.98;;;16.30;62.30;;;;;;5078059;28;20176;-46
2021/01/04 03:13:00;;;;;;;23.75;10.15;;;16.50;62.30;;;;;;5096684;28;20020;-46
2021/01/04 03:15:37;;;;;;;20.52;9.07;;;16.70;62.10;;;;;;5096556;28;20039;-46
2021/01/04 03:18:25;;;;;;;20.48;9.55;;;16.80;61.90;;;;;;5096572;28;20454;-46
2021/01/04 03:20:52;;;;;;;16.42;8.73;;;17.00;61.70;;;;;;5096227;28;20062;-46
2021/01/04 03:23:19;;;;;;;19.20;8.15;;;17.10;61.40;;;;;;5096216;28;20039;-45
2021/01/04 03:25:53;;;;;;;15.27;9.00;;;17.30;61.20;;;;;;5096415;28;20450;-46
2021/01/04 03:28:31;;;;;;;19.35;10.93;;;17.50;60.90;;;;;;5095984;28;20526;-46
2021/01/04 03:30:59;;;;;;;35.88;24.33;;;17.70;60.60;;;;;;5099194;28;20028;-46
2021/01/04 03:33:26;;;;;;;28.27;18.73;;;17.80;60.30;;;;;;5102267;28;20024;-46
2021/01/04 03:35:53;;;;;;;37.05;21.13;;;18.00;60.00;;;;;;5095722;28;20031;-46
2021/01/04 03:38:20;;;;;;;30.67;20.98;;;18.20;59.80;;;;;;5095840;28;20042;-46
2021/01/04 03:40:47;;;;;;;32.95;19.35;;;18.30;59.50;;;;;;5095843;28;20020;-46
2021/01/04 03:43:14;;;;;;;43.55;24.30;;;18.50;59.40;;;;;;5095665;28;20017;-45
2021/01/04 03:45:41;;;;;;;43.03;25.80;;;18.70;59.40;;;;;;5096009;28;20059;-46
2021/01/04 03:48:07;;;;;;;33.95;23.77;;;18.90;59.40;;;;;;5095161;28;20123;-46
2021/01/04 03:50:34;;;;;;;39.28;22.25;;;19.10;59.00;;;;;;5095377;28;20369;-46
2021/01/04 03:53:00;;;;;;;31.45;22.10;;;19.30;58.70;;;;;;5096057;28;20028;-46
2021/01/04 03:55:27;;;;;;;40.45;20.25;;;19.50;58.40;;;;;;5095600;28;20043;-46
2021/01/04 03:57:53;;;;;;;35.53;19.40;;;19.70;58.00;;;;;;5095040;28;20035;-46
2021/01/04 04:00:20;;;;;;;33.65;18.25;;;20.00;57.70;;;;;;5095497;28;20465;-46
2021/01/04 04:02:49;;;;;;;32.03;17.48;;;20.20;57.40;;;;;;5095544;28;20032;-47
2021/01/04 04:05:18;;;;;;;28.63;15.73;;;20.40;56.90;;;;;;5095094;28;20466;-46
2021/01/04 04:07:46;;;;;;;29.48;16.48;;;20.70;56.50;;;;;;5094885;28;20039;-46
2021/01/04 04:10:16;;;;;;;30.17;14.98;;;20.90;56.00;;;;;;5095142;28;20030;-46
2021/01/04 04:12:42;;;;;;;32.78;15.93;;;21.10;55.70;;;;;;5094907;28;20389;-46
2021/01/04 04:15:11;;;;;;;29.80;14.38;;;21.30;55.20;;;;;;5095182;28;20028;-46
2021/01/04 04:17:39;;;;;;;23.08;14.45;;;21.50;54.80;;;;;;5094788;28;20034;-46
2021/01/04 04:20:08;;;;;;;25.33;13.32;;;21.70;54.40;;;;;;5094847;28;20028;-46
2021/01/04 04:22:34;;;;;;;21.77;12.93;;;21.90;54.10;;;;;;5094070;28;20114;-46
2021/01/04 04:25:01;;;;;;;22.95;12.60;;;22.00;53.70;;;;;;5095009;28;20024;-47
2021/01/04 04:27:27;;;;;;;21.90;12.65;;;22.20;53.30;;;;;;5094984;28;20038;-46
2021/01/04 04:29:55;;;;;;;22.45;12.48;;;22.40;53.00;;;;;;5095259;28;20028;-47
2021/01/04 04:32:23;;;;;;;18.73;11.75;;;22.50;52.70;;;;;;5094582;28;20496;-46
2021/01/04 04:34:50;;;;;;;20.80;11.50;;;22.60;52.30;;;;;;5094717;28;20028;-46
2021/01/04 04:37:16;;;;;;;24.73;12.50;;;22.80;52.20;;;;;;5092862;28;20051;-47
2021/01/04 04:39:43;;;;;;;28.85;12.35;;;22.90;51.90;;;;;;5094695;28;20032;-47
2021/01/04 04:42:13;;;;;;;21.48;10.93;;;23.00;51.70;;;;;;5093747;28;20027;-47
2021/01/04 04:44:54;;;;;;;23.48;11.23;;;23.10;51.50;;;;;;5094267;28;20028;-46
2021/01/04 04:47:44;;;;;;;19.85;10.68;;;23.20;51.30;;;;;;5093627;28;20373;-46
2021/01/04 04:50:17;;;;;;;19.55;10.90;;;23.20;51.10;;;;;;5093672;28;20080;-46
2021/01/04 04:53:11;;;;;;;19.10;10.05;;;23.30;50.80;;;;;;5084307;28;20028;-46
2021/01/04 04:55:47;;;;;;;19.67;9.82;;;23.40;50.80;;;;;;5094068;28;20024;-46
2021/01/04 04:58:35;;;;;;;21.73;10.15;;;23.40;50.50;;;;;;5094544;28;20080;-46
2021/01/04 05:01:29;;;;;;;21.98;9.38;;;23.50;50.60;;;;;;5087744;28;20031;-46
2021/01/04 05:04:23;;;;;;;21.00;9.15;;;23.50;50.40;;;;;;5094602;28;20495;-46
2021/01/04 05:06:53;;;;;;;16.52;9.10;;;23.60;50.20;;;;;;5094492;28;20039;-46
2021/01/04 05:09:47;;;;;;;13.00;8.75;;;23.60;50.00;;;;;;5094824;28;20028;-46
2021/01/04 05:12:17;;;;;;;20.27;9.27;;;23.60;50.00;;;;;;5093682;28;20066;-46
2021/01/04 05:14:57;;;;;;;15.13;8.27;;;23.70;50.00;;;;;;5094430;28;20377;-46
2021/01/04 05:17:45;;;;;;;15.07;8.45;;;23.70;49.80;;;;;;5094046;28;20461;-46
2021/01/04 05:20:30;;;;;;;15.80;8.73;;;23.80;49.80;;;;;;5094272;28;20082;-46
2021/01/04 05:23:21;;;;;;;16.13;8.00;;;23.80;49.70;;;;;;5093220;28;20035;-46
2021/01/04 05:26:11;;;;;;;11.98;7.80;;;23.80;49.70;;;;;;5093228;28;20413;-46
2021/01/04 05:28:50;;;;;;;15.43;8.55;;;23.80;49.50;;;;;;5093579;28;20435;-46
2021/01/04 05:31:48;;;;;;;11.80;7.20;;;23.80;49.50;;;;;;5092160;28;20035;-46
2021/01/04 05:34:23;;;;;;;12.85;7.30;;;23.80;49.50;;;;;;5093869;28;20020;-46
2021/01/04 05:36:53;;;;;;;13.95;6.97;;;23.80;49.40;;;;;;5093956;28;20028;-46
2021/01/04 05:39:23;;;;;;;22.67;12.45;;;23.80;49.40;;;;;;5093898;28;20044;-46
2021/01/04 05:41:49;;;;;;;13.90;7.75;;;23.80;49.30;;;;;;5092907;28;20392;-47
2021/01/04 05:44:31;;;;;;;16.98;7.68;;;23.80;49.40;;;;;;5093351;28;20032;-46
2021/01/04 05:47:24;;;;;;;16.40;7.47;;;23.80;49.30;;;;;;5094390;28;20043;-47
2021/01/04 05:50:06;;;;;;;13.85;7.70;;;23.80;49.40;;;;;;5093379;28;20077;-47
2021/01/04 05:52:34;;;;;;;13.02;7.25;;;23.80;49.30;;;;;;5094345;28;20024;-46
2021/01/04 05:55:01;;;;;;;14.75;8.40;;;23.80;49.30;;;;;;5092573;28;20016;-47
2021/01/04 05:57:28;;;;;;;18.95;7.88;;;23.80;49.40;;;;;;5092961;28;20031;-46
2021/01/04 05:59:58;;;;;;;12.90;7.10;;;23.70;49.30;;;;;;5093272;28;20359;-47
2021/01/04 06:02:36;;;;;;;18.63;7.75;;;23.70;49.40;;;;;;5093628;28;20032;-46
2021/01/04 06:05:12;;;;;;;12.18;7.47;;;23.70;49.40;;;;;;5093342;28;20484;-47
2021/01/04 06:07:41;;;;;;;14.63;6.95;;;23.60;49.40;;;;;;5092823;28;20028;-46
2021/01/04 06:10:18;;;;;;;12.27;7.30;;;23.60;49.50;;;;;;5072861;28;20036;-46
2021/01/04 06:12:48;;;;;;;11.40;6.97;;;23.50;49.50;;;;;;5093261;28;20020;-46
2021/01/04 06:15:25;;;;;;;15.73;7.72;;;23.50;49.50;;;;;;5073293;28;20025;-47
2021/01/04 06:18:05;;;;;;;13.45;6.82;;;23.40;49.50;;;;;;5072925;28;20128;-47
2021/01/04 06:20:44;;;;;;;17.08;6.35;;;23.40;50.30;;;;;;5073340;28;20052;-47
2021/01/04 06:23:12;;;;;;;9.93;5.78;;;23.30;49.60;;;;;;5073838;28;20021;-46
2021/01/04 06:25:39;;;;;;;11.57;5.82;;;23.30;49.80;;;;;;5092227;28;20102;-46
2021/01/04 06:28:06;;;;;;;15.27;6.20;;;23.20;49.80;;;;;;5093431;28;20028;-46
2021/01/04 06:30:41;;;;;;;10.75;6.40;;;23.20;49.90;;;;;;5092655;28;20436;-46
2021/01/04 06:33:14;;;;;;;10.13;5.72;;;23.10;50.60;;;;;;5091253;28;20458;-47
2021/01/04 06:35:41;;;;;;;10.18;5.80;;;23.10;50.00;;;;;;5093030;28;20054;-47
2021/01/04 06:38:11;;;;;;;11.13;6.03;;;23.10;50.10;;;;;;5093279;28;20082;-46
2021/01/04 06:40:40;;;;;;;13.40;5.97;;;23.00;50.10;;;;;;5093398;28;20062;-46
2021/01/04 06:43:30;;;;;;;8.73;5.68;;;22.90;50.20;;;;;;5092594;28;20484;-46
2021/01/04 06:45:57;;;;;;;10.90;5.68;;;22.90;50.30;;;;;;5095085;28;20529;-46
2021/01/04 06:48:56;;;;;;;10.43;5.30;;;22.80;50.30;;;;;;5096869;28;20076;-46
2021/01/04 06:51:38;;;;;;;10.32;5.15;;;22.70;50.50;;;;;;5081175;28;20046;-46
2021/01/04 06:54:05;;;;;;;7.72;5.18;;;22.70;50.50;;;;;;5096425;28;20028;-47
2021/01/04 06:56:59;;;;;;;9.50;5.63;;;22.70;50.60;;;;;;5097058;28;20024;-46
2021/01/04 07:00:00;;;;;;;15.02;5.75;;;22.60;50.70;;;;;;5096426;28;20526;-46
2021/01/04 07:02:48;;;;;;;8.40;5.07;;;22.50;50.70;;;;;;5078718;28;20044;-46
2021/01/04 07:05:45;;;;;;;12.52;5.07;;;22.50;50.90;;;;;;5096640;28;20024;-46
2021/01/04 07:08:18;;;;;;;9.52;5.05;;;22.40;50.90;;;;;;5094974;28;20035;-47
2021/01/04 07:11:03;;;;;;;14.05;5.30;;;22.40;51.70;;;;;;5094218;28;20100;-46
2021/01/04 19:03:30;;;;;;;19.00;6.20;;;17.20;65.00;;;;;;4996839;28;20832;-50
2021/01/04 19:05:57;;;;;;;15.15;5.90;;;17.10;65.40;;;;;;4987688;28;20030;-51
2021/01/04 19:08:24;;;;;;;13.32;5.60;;;17.30;65.30;;;;;;4986901;28;20428;-51
2021/01/04 19:10:50;;;;;;;14.65;5.72;;;17.50;65.10;;;;;;4988497;28;20026;-50
2021/01/04 19:13:17;;;;;;;19.80;6.05;;;17.70;64.60;;;;;;4988503;28;20034;-50
2021/01/04 19:15:44;;;;;;;26.45;6.93;;;17.90;64.30;;;;;;4988031;28;20033;-50
2021/01/04 19:18:10;;;;;;;19.85;5.85;;;18.10;64.00;;;;;;4988066;28;20390;-50
2021/01/04 19:20:37;;;;;;;14.80;5.57;;;18.20;63.50;;;;;;4988185;28;20023;-50
2021/01/04 19:23:03;;;;;;;16.80;5.45;;;18.40;63.10;;;;;;4988382;28;20076;-50
2021/01/04 19:25:30;;;;;;;18.52;6.20;;;18.60;62.50;;;;;;4988370;28;20027;-50
2021/01/04 19:27:56;;;;;;;16.73;5.68;;;18.80;62.10;;;;;;4987898;28;20034;-50
2021/01/04 19:30:23;;;;;;;12.25;5.35;;;19.00;61.80;;;;;;4986690;28;20038;-50
2021/01/04 19:32:50;;;;;;;13.48;5.68;;;19.10;61.30;;;;;;4987810;28;20151;-50
2021/01/04 19:35:18;;;;;;;15.10;5.40;;;19.30;60.90;;;;;;4986959;28;20042;-50
2021/01/04 19:37:49;;;;;;;13.68;5.32;;;19.50;60.60;;;;;;4980611;28;20480;-51
2021/01/04 19:40:16;;;;;;;20.92;6.25;;;19.60;60.50;;;;;;4988187;28;20019;-50
2021/01/04 19:42:43;;;;;;;15.13;5.05;;;19.80;60.50;;;;;;5009909;28;20041;-50
2021/01/04 19:45:10;;;;;;;13.07;5.57;;;20.00;60.20;;;;;;5090711;28;20036;-50
2021/01/04 19:47:37;;;;;;;13.10;5.30;;;20.10;59.90;;;;;;5025470;28;20054;-50
2021/01/04 19:50:05;;;;;;;14.32;5.32;;;20.30;59.50;;;;;;4987393;28;20124;-51
2021/01/04 19:52:32;;;;;;;16.55;5.20;;;20.50;59.10;;;;;;4987126;28;20111;-51
2021/01/04 19:54:59;;;;;;;13.63;5.15;;;20.70;58.80;;;;;;5019079;28;20027;-50
2021/01/04 19:57:25;;;;;;;12.55;4.90;;;20.80;58.50;;;;;;5036556;28;20109;-50
2021/01/04 19:59:52;;;;;;;14.50;4.97;;;21.00;58.10;;;;;;4993520;28;20031;-51
2021/01/04 20:02:19;;;;;;;16.45;5.18;;;21.20;57.60;;;;;;4987794;28;20046;-50
2021/01/04 20:04:45;;;;;;;14.55;5.13;;;21.40;57.20;;;;;;5029927;28;20482;-50
2021/01/04 20:07:12;;;;;;;14.10;4.82;;;21.60;56.90;;;;;;5004092;28;20018;-50
2021/01/04 20:09:38;;;;;;;15.48;5.03;;;21.70;56.40;;;;;;5037701;28;20062;-49
2021/01/04 20:12:07;;;;;;;13.45;4.55;;;21.90;56.10;;;;;;5070645;28;20109;-50
2021/01/04 20:14:34;;;;;;;22.17;4.95;;;22.00;55.70;;;;;;4995250;28;20042;-50
2021/01/04 20:17:00;;;;;;;17.77;5.10;;;22.20;55.30;;;;;;4982165;28;20363;-50
2021/01/04 20:19:27;;;;;;;17.02;5.10;;;22.40;55.10;;;;;;4981078;28;20458;-50
2021/01/04 20:21:54;;;;;;;12.77;4.28;;;22.50;54.70;;;;;;4975009;28;20117;-50
2021/01/04 20:24:22;;;;;;;18.10;5.53;;;22.60;54.40;;;;;;4974014;28;20046;-50
2021/01/04 20:27:00;;;;;;;15.52;5.07;;;22.80;54.10;;;;;;4973614;28;20459;-49
2021/01/04 20:29:33;;;;;;;18.25;5.25;;;22.90;53.80;;;;;;4973621;28;20386;-51
2021/01/04 20:32:06;;;;;;;13.10;5.43;;;23.00;53.60;;;;;;4972305;28;20037;-50
2021/01/04 20:34:37;;;;;;;16.40;5.07;;;23.10;53.20;;;;;;4972973;28;20144;-51
2021/01/04 20:37:11;;;;;;;23.88;5.40;;;23.20;52.90;;;;;;5046131;28;20124;-50
2021/01/04 20:39:39;;;;;;;15.45;5.10;;;23.30;52.80;;;;;;4972387;28;20080;-51
2021/01/04 20:42:07;;;;;;;13.35;4.95;;;23.40;52.60;;;;;;4972781;28;20117;-50
2021/01/04 20:44:34;;;;;;;14.38;4.80;;;23.40;52.40;;;;;;4983430;28;20109;-51
2021/01/04 20:47:01;;;;;;;19.08;5.50;;;23.50;52.20;;;;;;5039078;28;20491;-50
2021/01/04 20:49:28;;;;;;;21.38;5.38;;;23.60;52.10;;;;;;5075653;28;20395;-50
2021/01/04 20:51:57;;;;;;;19.08;5.18;;;23.70;51.90;;;;;;5065066;28;20028;-50
2021/01/04 20:54:24;;;;;;;20.08;5.03;;;23.70;51.80;;;;;;4974092;28;20031;-50
2021/01/04 20:56:52;;;;;;;17.83;5.10;;;23.80;51.60;;;;;;4973324;28;20370;-50
2021/01/04 20:59:19;;;;;;;11.77;4.97;;;23.90;51.40;;;;;;4973580;28;20496;-49
2021/01/04 21:01:46;;;;;;;22.27;5.35;;;24.00;51.30;;;;;;4954323;28;20052;-50
2021/01/04 21:04:13;;;;;;;14.40;4.85;;;24.00;51.10;;;;;;4954687;29;20546;-50
2021/01/04 21:06:48;;;;;;;10.85;4.60;;;24.10;50.80;;;;;;4953355;29;20478;-50
2021/01/04 21:09:19;;;;;;;11.88;5.22;;;24.20;50.70;;;;;;4954548;28;20049;-50
2021/01/04 21:11:45;;;;;;;19.92;5.82;;;24.30;50.50;;;;;;4962314;28;20035;-50
2021/01/04 21:14:13;;;;;;;16.60;5.07;;;24.40;50.80;;;;;;4970284;28;20027;-50
2021/01/04 21:16:39;;;;;;;19.52;5.20;;;24.50;50.30;;;;;;4968500;28;20110;-50
2021/01/04 21:19:06;;;;;;;12.63;4.72;;;24.60;50.20;;;;;;4973639;28;20038;-50
2021/01/04 21:21:33;;;;;;;17.88;4.80;;;24.60;50.00;;;;;;4969522;28;20474;-50
2021/01/04 21:24:00;;;;;;;13.65;4.78;;;24.70;49.80;;;;;;4954337;29;20039;-50
2021/01/04 21:26:29;;;;;;;13.95;4.63;;;24.80;49.80;;;;;;4953279;29;20041;-50
2021/01/04 21:28:56;;;;;;;12.20;4.93;;;24.90;49.50;;;;;;4970453;28;20027;-50
2021/01/04 21:31:29;;;;;;;20.48;5.38;;;25.00;49.20;;;;;;4973424;28;20058;-50
2021/01/04 21:33:56;;;;;;;26.27;5.95;;;25.00;49.10;;;;;;4973628;28;20451;-51
2021/01/04 21:36:40;;;;;;;31.75;6.00;;;25.10;49.00;;;;;;4973238;28;20031;-51
2021/01/04 21:39:10;;;;;;;19.17;6.03;;;25.20;49.00;;;;;;4970759;28;20490;-51
2021/01/04 21:41:40;;;;;;;29.42;6.07;;;25.20;48.70;;;;;;4971892;28;20031;-51
2021/01/04 21:44:08;;;;;;;37.92;6.75;;;25.30;48.60;;;;;;4979105;28;20053;-51
2021/01/04 21:46:37;;;;;;;25.48;6.43;;;25.30;48.50;;;;;;4973253;28;20436;-50
2021/01/04 21:49:08;;;;;;;23.48;5.80;;;25.40;48.50;;;;;;4972321;28;20080;-51
2021/01/04 21:51:46;;;;;;;25.73;6.17;;;25.40;48.40;;;;;;4973124;28;20027;-50
2021/01/04 21:54:16;;;;;;;25.00;5.82;;;25.40;48.30;;;;;;4973094;28;20268;-50
2021/01/04 21:56:43;;;;;;;24.88;5.93;;;25.50;48.10;;;;;;4973496;28;20023;-50
2021/01/04 21:59:11;;;;;;;17.30;5.53;;;25.50;48.00;;;;;;4972790;28;20042;-50
2021/01/04 22:01:37;;;;;;;16.23;5.18;;;25.60;48.00;;;;;;4972865;28;20058;-50
2021/01/04 22:04:04;;;;;;;16.70;4.88;;;25.70;48.00;;;;;;4972270;28;20034;-50
2021/01/04 22:06:32;;;;;;;20.77;5.03;;;25.80;47.90;;;;;;4971828;28;20034;-50
2021/01/04 22:08:59;;;;;;;16.48;5.05;;;25.80;47.80;;;;;;4972990;28;20023;-50
2021/01/04 22:11:32;;;;;;;21.70;5.43;;;25.90;47.70;;;;;;4972522;28;20088;-50
2021/01/04 22:13:58;;;;;;;18.35;5.28;;;26.00;47.50;;;;;;4972963;28;20088;-50
2021/01/04 22:16:25;;;;;;;22.52;5.45;;;26.10;47.40;;;;;;4972920;28;20061;-50
2021/01/04 22:18:52;;;;;;;16.65;4.70;;;26.20;47.30;;;;;;4972912;28;20031;-50
2021/01/04 22:21:18;;;;;;;24.30;5.05;;;26.30;47.10;;;;;;4972609;28;20027;-50
2021/01/04 22:23:45;;;;;;;20.10;5.20;;;26.50;47.10;;;;;;4971518;28;20390;-50
2021/01/04 22:26:17;;;;;;;16.05;4.93;;;26.50;47.00;;;;;;4972928;28;20023;-50
2021/01/04 22:28:43;;;;;;;14.07;5.15;;;26.70;46.80;;;;;;4972481;28;20050;-50
2021/01/04 22:31:15;;;;;;;11.30;4.60;;;26.80;46.60;;;;;;4972582;28;20038;-50
2021/01/04 22:33:45;;;;;;;12.50;4.78;;;26.90;46.40;;;;;;4973392;28;20104;-50
2021/01/04 22:36:14;;;;;;;12.10;4.43;;;27.10;46.20;;;;;;4971974;28;20031;-50
2021/01/04 22:38:42;;;;;;;13.98;4.55;;;27.20;46.10;;;;;;4972554;28;20169;-50
2021/01/04 22:41:09;;;;;;;13.30;4.43;;;27.30;45.90;;;;;;4972535;28;20023;-50
2021/01/04 22:43:39;;;;;;;12.40;4.55;;;27.40;45.80;;;;;;4972525;28;20027;-50
2021/01/04 22:46:07;;;;;;;14.07;4.47;;;27.60;45.70;;;;;;4972494;28;20106;-50
2021/01/04 22:48:35;;;;;;;12.60;4.75;;;27.70;45.60;;;;;;4972679;28;20033;-50
2021/01/04 22:51:01;;;;;;;9.82;4.30;;;27.70;45.30;;;;;;4972323;28;20029;-50
2021/01/04 22:53:28;;;;;;;10.65;4.60;;;27.90;45.20;;;;;;4972523;28;20033;-50
2021/01/04 22:55:55;;;;;;;8.18;3.88;;;28.00;45.10;;;;;;4972029;28;20114;-50
2021/01/04 22:58:22;;;;;;;15.18;4.88;;;28.10;44.90;;;;;;4972287;28;20027;-50
2021/01/04 23:00:49;;;;;;;14.88;4.50;;;28.20;44.80;;;;;;4972307;28;20027;-50
2021/01/04 23:03:16;;;;;;;14.05;4.18;;;28.30;44.60;;;;;;4972371;28;20050;-50
2021/01/04 23:05:47;;;;;;;12.05;4.25;;;28.40;44.50;;;;;;4972222;28;20019;-50
2021/01/04 23:08:15;;;;;;;11.97;4.37;;;28.50;44.30;;;;;;4972231;28;20081;-50
2021/01/04 23:10:42;;;;;;;10.48;4.20;;;28.50;44.10;;;;;;4971849;28;20102;-50
2021/01/04 23:13:14;;;;;;;10.02;4.40;;;28.60;44.10;;;;;;4972047;28;20118;-50
2021/01/04 23:15:41;;;;;;;9.77;4.20;;;28.60;43.90;;;;;;4972887;28;20034;-50
2021/01/04 23:18:09;;;;;;;11.15;4.45;;;28.70;43.80;;;;;;4972835;28;20030;-50
2021/01/04 23:20:35;;;;;;;9.70;4.10;;;28.80;43.70;;;;;;4971761;28;20031;-50
2021/01/04 23:23:03;;;;;;;10.80;4.00;;;28.80;43.70;;;;;;4972034;28;20027;-50
2021/01/04 23:25:29;;;;;;;8.75;4.20;;;28.90;43.60;;;;;;4971709;28;20031;-50
2021/01/04 23:28:00;;;;;;;9.45;4.32;;;28.90;43.50;;;;;;4971693;28;20467;-50
2021/01/04 23:30:34;;;;;;;12.20;4.05;;;28.90;43.30;;;;;;4971966;28;20076;-50
2021/01/04 23:33:05;;;;;;;9.35;3.78;;;28.90;44.00;;;;;;4972401;28;20038;-50
2021/01/04 23:35:32;;;;;;;9.27;4.15;;;28.90;43.30;;;;;;4971875;28;20031;-50
2021/01/04 23:37:58;;;;;;;10.18;4.05;;;28.90;43.30;;;;;;4971504;28;20031;-50
2021/01/04 23:40:26;;;;;;;8.40;3.53;;;28.80;43.10;;;;;;4972009;28;20089;-50
2021/01/04 23:42:52;;;;;;;8.75;4.00;;;28.80;43.10;;;;;;4971675;28;20031;-50
2021/01/04 23:45:20;;;;;;;8.57;4.10;;;28.80;43.20;;;;;;4971809;28;20489;-50
2021/01/04 23:47:47;;;;;;;9.32;3.72;;;28.80;43.80;;;;;;4971426;28;20031;-50
2021/01/04 23:50:15;;;;;;;8.75;3.45;;;28.70;43.10;;;;;;4974541;28;20057;-50
2021/01/04 23:52:41;;;;;;;8.80;3.25;;;28.70;43.20;;;;;;4974698;28;20031;-50
2021/01/04 23:55:08;;;;;;;9.05;3.47;;;28.70;43.20;;;;;;4975054;28;20039;-50
2021/01/04 23:57:35;;;;;;;8.45;3.58;;;28.60;43.20;;;;;;4974637;28;20038;-50
